Mountain Home Air Force Base
KMUO : rendu visible

Aérodrome :











RETROUVEZ-NOUS SUR...

 
LOGIN :

S'inscrire | Disclaimer

   EN    FR    IT 

 









Légende :    VFR   VFR Marginal   IFR   IFR Intensif   IFR Très Intensif
Visi : 
Plafond : 
>= 8 km
>= 3000ft
5 à 8 km
1000 à 3000 ft
1500m à 5 km
500 à 1000 ft
800 à 1500m
200 à 500 ft
< 800m
< 200 ft
Symboles :   Orages  Brouillard  Fortes neiges  Fortes précipitations  Vent > 20 kt






- Altitude de l'aérodrome : 2996 ft


KMUO - Mountain Home Air Force Base

DERNIER METAR :
  • 150758Z AUTO 00000KT 9SM FEW190 02/01 A3009 RMK AO2 SLP198 T00150014 $

METARs EXPIRÉS :
  • 150658Z AUTO 00000KT 10SM FEW180 OVC210 03/00 A3010 RMK AO2 SLP202 T00300001 401231026 $
  • 150558Z AUTO 22003KT 10SM BKN120 BKN140 OVC180 05/01 A3010 RMK AO2 RAE05 SLP202 P0000 60000 T00470006 10114 20033 55001 $
  • 150505Z AUTO 16005KT 6SM HZ SCT150 03/00 A3010 RMK AO2 RAE05 SLP206 $

TAF TAF KMUO
Valide du 15 à 02h jusqu'au 16 à 08h UTC


150200Z 1502/1608 VRB06KT 9999 BKN130 QNH3007INS
BECMG 1519/1520 32009KT 9999 SCT130 QNH3016INS
BECMG 1602/1603 32009KT 9999 BKN050 QNH3022INS TX15/1522Z TN00/1513Z



MET'MAP, la Météo Aéronautique d'un coup d'oeil ! - Copyright ORBIFLY Décembre 2007 - Disclaimer

ORBIFLY MET'MAP TEAM :

Programmation & Développement : Alexandra Zaïnal
Conception & Développement : Baudouin d'Aumeries
Co-Programmation & Développement : Marc-Olivier Méhu
Soutien technique & logistique : Manuel Goepfert

Contact : metmap@orbifly.com




SOURCES & CREDITS :

   NOAA       Earth
Advisory